createdAt,value
2023-04-01T00:00:36.586Z,24.97
2023-04-01T00:01:36.661Z,24.96
2023-04-01T00:02:36.766Z,25.00
2023-04-01T00:03:36.751Z,25.05
2023-04-01T00:04:36.737Z,25.08
2023-04-01T00:05:36.745Z,25.04
2023-04-01T00:06:36.802Z,24.95
2023-04-01T00:07:36.819Z,24.97
2023-04-01T00:08:36.854Z,24.88
2023-04-01T00:09:36.907Z,24.90
2023-04-01T00:10:36.969Z,24.93
2023-04-01T00:11:37.001Z,24.92
2023-04-01T00:12:37.033Z,24.92
2023-04-01T00:13:37.049Z,24.90
2023-04-01T00:14:37.088Z,24.91
2023-04-01T00:15:37.099Z,24.90
2023-04-01T00:16:37.172Z,24.89
2023-04-01T00:17:37.201Z,24.91
2023-04-01T00:18:37.250Z,24.94
2023-04-01T00:19:37.259Z,24.96
2023-04-01T00:20:37.319Z,24.97
2023-04-01T00:21:37.348Z,25.02
2023-04-01T00:22:37.473Z,25.10
2023-04-01T00:23:37.414Z,25.13
2023-04-01T00:24:37.436Z,25.17
2023-04-01T00:25:37.475Z,25.21
2023-04-01T00:26:37.525Z,25.23
2023-04-01T00:27:37.575Z,25.24
2023-04-01T00:28:37.597Z,25.27
2023-04-01T00:29:37.635Z,25.28
2023-04-01T00:30:37.637Z,25.30
2023-04-01T00:31:37.738Z,25.34
2023-04-01T00:32:37.686Z,25.34
2023-04-01T00:33:37.774Z,25.34
2023-04-01T00:34:37.765Z,25.34
2023-04-01T00:35:37.808Z,25.34
2023-04-01T00:36:37.907Z,25.33
2023-04-01T00:37:37.867Z,25.34
2023-04-01T00:38:37.927Z,25.34
2023-04-01T00:39:37.983Z,25.34
2023-04-01T00:40:38.010Z,25.35
2023-04-01T00:41:38.045Z,25.31
2023-04-01T00:42:38.107Z,25.33
2023-04-01T00:43:38.141Z,25.34
2023-04-01T00:44:38.189Z,25.34
2023-04-01T00:45:38.208Z,25.32
2023-04-01T00:46:38.276Z,25.34
2023-04-01T00:47:38.328Z,25.35
2023-04-01T00:48:38.325Z,25.34
2023-04-01T00:49:38.382Z,25.40
2023-04-01T00:50:38.397Z,25.37
2023-04-01T00:51:38.429Z,25.40
2023-04-01T00:52:38.430Z,25.37
2023-04-01T00:53:38.510Z,25.38
2023-04-01T00:54:38.497Z,25.40
2023-04-01T00:55:38.507Z,25.41
2023-04-01T00:56:38.550Z,25.40
2023-04-01T00:57:38.571Z,25.40
2023-04-01T00:58:38.581Z,25.39
2023-04-01T00:59:38.607Z,25.41
2023-04-01T01:00:38.670Z,25.41
2023-04-01T01:01:38.684Z,25.43
2023-04-01T01:02:38.798Z,25.39
2023-04-01T01:03:38.754Z,25.39
2023-04-01T01:04:38.796Z,25.37
2023-04-01T01:05:48.526Z,25.40
2023-04-01T01:06:39.817Z,25.40
2023-04-01T01:07:38.789Z,25.40
2023-04-01T01:08:38.802Z,25.39
2023-04-01T01:09:38.790Z,25.39
2023-04-01T01:10:38.768Z,25.41
2023-04-01T01:11:43.592Z,25.39
2023-04-01T01:12:39.759Z,25.41
2023-04-01T01:13:38.775Z,25.40
2023-04-01T01:14:38.753Z,25.39
2023-04-01T01:15:38.727Z,25.35
2023-04-01T01:16:38.757Z,25.41
2023-04-01T01:17:38.768Z,25.41
2023-04-01T01:18:38.699Z,25.42
2023-04-01T01:19:38.732Z,25.44
2023-04-01T01:20:38.703Z,25.42
2023-04-01T01:21:38.678Z,25.40
2023-04-01T01:22:38.721Z,25.41
2023-04-01T01:23:38.683Z,25.38
2023-04-01T01:24:38.669Z,25.40
2023-04-01T01:25:38.719Z,25.38
2023-04-01T01:26:38.776Z,25.37
2023-04-01T01:27:38.769Z,25.36
2023-04-01T01:28:38.813Z,25.36
2023-04-01T01:29:38.849Z,25.35
2023-04-01T01:30:38.906Z,25.31
2023-04-01T01:31:38.937Z,25.28
2023-04-01T01:32:39.001Z,25.25
2023-04-01T01:33:39.002Z,25.25
2023-04-01T01:34:39.052Z,25.25
2023-04-01T01:35:39.109Z,25.25
2023-04-01T01:36:39.122Z,25.26
2023-04-01T01:37:39.140Z,25.28
2023-04-01T01:38:39.195Z,25.28
2023-04-01T01:39:39.245Z,25.27
2023-04-01T01:40:39.276Z,25.26
2023-04-01T01:41:39.318Z,25.28
2023-04-01T01:42:39.350Z,25.31
2023-04-01T01:43:39.381Z,25.33
2023-04-01T01:44:39.423Z,25.31
2023-04-01T01:45:39.463Z,25.30
2023-04-01T01:46:39.534Z,25.31
2023-04-01T01:47:39.541Z,25.30
2023-04-01T01:48:39.567Z,25.29
2023-04-01T01:49:39.580Z,25.28
2023-04-01T01:50:39.612Z,25.27
2023-04-01T01:51:39.630Z,25.24
2023-04-01T01:52:39.707Z,25.23
2023-04-01T01:53:39.708Z,25.18
2023-04-01T01:54:39.802Z,25.23
2023-04-01T01:55:39.823Z,25.23
2023-04-01T01:56:39.847Z,25.21
2023-04-01T01:57:39.905Z,25.23
2023-04-01T01:58:39.926Z,25.21
2023-04-01T01:59:40.015Z,25.22
2023-04-01T02:00:39.998Z,25.21
2023-04-01T02:01:40.094Z,25.23
2023-04-01T02:02:40.119Z,25.19
2023-04-01T02:03:40.118Z,25.22
2023-04-01T02:04:40.204Z,25.22
2023-04-01T02:05:40.181Z,25.24
2023-04-01T02:06:40.225Z,25.20
2023-04-01T02:07:40.251Z,25.17
2023-04-01T02:08:40.320Z,25.17
2023-04-01T02:09:40.338Z,25.16
2023-04-01T02:10:40.389Z,25.21
2023-04-01T02:11:40.421Z,25.17
2023-04-01T02:12:40.458Z,25.16
2023-04-01T02:13:40.441Z,25.16
2023-04-01T02:14:40.496Z,25.17
2023-04-01T02:15:40.542Z,25.18
2023-04-01T02:16:40.547Z,25.19
2023-04-01T02:17:40.613Z,25.22
2023-04-01T02:18:40.632Z,25.21
2023-04-01T02:19:40.747Z,25.23
2023-04-01T02:20:40.720Z,25.23
2023-04-01T02:21:40.723Z,25.23
2023-04-01T02:22:40.776Z,25.23
2023-04-01T02:23:40.791Z,25.24
2023-04-01T02:24:40.839Z,25.25
2023-04-01T02:25:40.891Z,25.23
2023-04-01T02:26:40.917Z,25.23
2023-04-01T02:27:40.939Z,25.21
2023-04-01T02:28:40.957Z,25.20
2023-04-01T02:29:41.011Z,25.21
2023-04-01T02:30:41.083Z,25.20
2023-04-01T02:31:41.130Z,25.19
2023-04-01T02:32:41.201Z,25.20
2023-04-01T02:33:41.154Z,25.18
2023-04-01T02:34:41.189Z,25.15
2023-04-01T02:35:41.335Z,25.15
2023-04-01T02:36:41.274Z,25.08
2023-04-01T02:37:41.328Z,25.07
2023-04-01T02:38:41.371Z,25.06
2023-04-01T02:39:41.403Z,25.05
2023-04-01T02:40:41.475Z,25.03
2023-04-01T02:41:41.496Z,25.02
2023-04-01T02:42:41.543Z,25.01
2023-04-01T02:43:42.563Z,25.01
2023-04-01T02:44:41.626Z,25.00
2023-04-01T02:45:41.657Z,25.00
2023-04-01T02:46:41.841Z,24.99
2023-04-01T02:47:41.755Z,25.02
2023-04-01T02:48:41.717Z,24.98
2023-04-01T02:49:41.747Z,24.97
2023-04-01T02:50:41.799Z,25.01
2023-04-01T02:51:41.844Z,25.04
2023-04-01T02:52:41.884Z,25.05
2023-04-01T02:53:41.944Z,25.04
2023-04-01T02:54:41.957Z,25.06
2023-04-01T02:55:41.958Z,25.03
2023-04-01T02:56:42.007Z,25.06
2023-04-01T02:57:42.046Z,25.08
2023-04-01T02:58:42.094Z,25.09
2023-04-01T02:59:42.132Z,25.10
2023-04-01T03:00:42.205Z,25.09
2023-04-01T03:01:42.206Z,25.09
2023-04-01T03:02:42.330Z,25.10
2023-04-01T03:03:42.299Z,25.10
2023-04-01T03:04:42.340Z,25.08
2023-04-01T03:05:42.380Z,25.06
2023-04-01T03:06:42.397Z,25.04
2023-04-01T03:07:42.464Z,25.01
2023-04-01T03:08:42.519Z,25.01
2023-04-01T03:09:42.551Z,25.00
2023-04-01T03:10:42.585Z,25.02
2023-04-01T03:11:42.656Z,25.01
2023-04-01T03:12:42.660Z,24.99
2023-04-01T03:13:42.681Z,25.01
2023-04-01T03:14:42.693Z,25.00
2023-04-01T03:15:42.726Z,25.00
2023-04-01T03:16:42.786Z,25.01
2023-04-01T03:17:42.887Z,25.01
2023-04-01T03:18:42.858Z,25.02
2023-04-01T03:19:42.898Z,25.02
2023-04-01T03:20:42.882Z,25.06
2023-04-01T03:21:42.915Z,25.05
2023-04-01T03:22:43.249Z,25.05
2023-04-01T03:23:42.959Z,25.04
2023-04-01T03:24:42.983Z,25.07
2023-04-01T03:25:43.013Z,25.06
2023-04-01T03:26:43.065Z,25.04
2023-04-01T03:27:43.060Z,25.05
2023-04-01T03:28:43.077Z,25.00
2023-04-01T03:29:43.179Z,25.04
2023-04-01T03:30:43.170Z,25.04
2023-04-01T03:31:43.185Z,25.04
2023-04-01T03:32:43.227Z,25.05
2023-04-01T03:33:43.230Z,25.03
2023-04-01T03:34:43.286Z,25.08
2023-04-01T03:35:43.318Z,25.06
2023-04-01T03:36:43.382Z,25.07
2023-04-01T03:37:43.426Z,25.06
2023-04-01T03:38:43.527Z,25.09
2023-04-01T03:39:44.531Z,25.08
2023-04-01T03:40:43.575Z,25.04
2023-04-01T03:41:43.590Z,25.07
2023-04-01T03:42:43.702Z,25.08
2023-04-01T03:43:43.678Z,25.07
2023-04-01T03:44:43.746Z,25.04
2023-04-01T03:45:43.774Z,25.04
2023-04-01T03:46:43.842Z,25.03
2023-04-01T03:47:43.900Z,25.03
2023-04-01T03:48:43.922Z,25.03
2023-04-01T03:49:43.956Z,25.00
2023-04-01T03:50:43.998Z,25.04
2023-04-01T03:51:44.044Z,25.02
2023-04-01T03:52:44.045Z,25.01
2023-04-01T03:53:44.102Z,25.00
2023-04-01T03:54:44.144Z,25.01
2023-04-01T03:55:44.148Z,25.02
2023-04-01T03:56:44.183Z,24.99
2023-04-01T03:57:44.233Z,25.03
2023-04-01T03:58:44.260Z,24.98
2023-04-01T03:59:44.584Z,25.00
2023-04-01T04:00:44.374Z,24.99
2023-04-01T04:01:44.412Z,24.99
2023-04-01T04:02:44.476Z,25.02
2023-04-01T04:03:44.556Z,25.00
2023-04-01T04:04:44.626Z,25.03
2023-04-01T04:05:44.553Z,25.04
2023-04-01T04:06:44.590Z,25.05
2023-04-01T04:07:44.664Z,25.03
2023-04-01T04:08:44.682Z,25.03
2023-04-01T04:09:44.735Z,25.06
2023-04-01T04:10:44.796Z,25.06
2023-04-01T04:11:44.837Z,25.06
2023-04-01T04:12:44.902Z,25.09
2023-04-01T04:13:44.936Z,25.08
2023-04-01T04:14:44.964Z,25.08
2023-04-01T04:15:45.020Z,25.08
2023-04-01T04:16:45.053Z,25.11
2023-04-01T04:17:45.131Z,25.10
2023-04-01T04:18:45.185Z,25.09
2023-04-01T04:19:45.221Z,25.07
2023-04-01T04:20:45.289Z,25.06
2023-04-01T04:21:45.288Z,25.06
2023-04-01T04:22:45.338Z,25.07
2023-04-01T04:23:45.361Z,25.06
2023-04-01T04:24:45.389Z,25.08
2023-04-01T04:25:45.449Z,25.06
2023-04-01T04:26:45.476Z,25.09
2023-04-01T04:27:45.500Z,25.06
2023-04-01T04:28:45.541Z,25.08
2023-04-01T04:29:45.594Z,25.06
2023-04-01T04:30:45.637Z,25.09
2023-04-01T04:31:45.665Z,25.10
2023-04-01T04:32:45.762Z,25.09
2023-04-01T04:33:45.722Z,25.10
2023-04-01T04:34:45.759Z,25.04
2023-04-01T04:35:45.804Z,25.03
2023-04-01T04:36:45.792Z,25.07
2023-04-01T04:37:45.836Z,25.07
2023-04-01T04:38:45.875Z,25.06
2023-04-01T04:39:45.892Z,25.04
2023-04-01T04:40:45.935Z,25.07
2023-04-01T04:41:45.969Z,25.03
2023-04-01T04:42:46.032Z,25.05
2023-04-01T04:43:46.060Z,25.04
2023-04-01T04:44:46.105Z,25.06
2023-04-01T04:45:46.123Z,25.06
2023-04-01T04:46:46.207Z,25.05
2023-04-01T04:47:46.199Z,25.04
2023-04-01T04:48:46.188Z,25.02
2023-04-01T04:49:46.205Z,25.05
2023-04-01T04:50:46.239Z,25.06
2023-04-01T04:51:46.344Z,25.05
2023-04-01T04:52:46.306Z,25.04
2023-04-01T04:53:46.358Z,25.02
2023-04-01T04:54:46.373Z,25.06
2023-04-01T04:55:46.423Z,25.03
2023-04-01T04:56:46.563Z,25.05
2023-04-01T04:57:46.504Z,25.07
2023-04-01T04:58:46.523Z,25.08
2023-04-01T04:59:46.600Z,25.06
2023-04-01T05:00:46.644Z,25.07
2023-04-01T05:01:46.816Z,25.09
2023-04-01T05:02:46.832Z,25.08
2023-04-01T05:03:46.747Z,25.08
2023-04-01T05:04:46.772Z,25.06
2023-04-01T05:05:46.789Z,25.05
2023-04-01T05:06:46.843Z,25.06
2023-04-01T05:07:46.896Z,25.06
2023-04-01T05:08:46.915Z,25.09
2023-04-01T05:09:46.954Z,25.07
2023-04-01T05:10:46.978Z,25.08
2023-04-01T05:11:47.039Z,25.06
2023-04-01T05:12:47.078Z,25.06
2023-04-01T05:13:47.242Z,25.08
2023-04-01T05:14:47.146Z,25.07
2023-04-01T05:15:47.197Z,25.07
2023-04-01T05:16:47.299Z,25.07
2023-04-01T05:17:47.337Z,25.07
2023-04-01T05:18:47.308Z,25.08
2023-04-01T05:19:47.337Z,25.08
2023-04-01T05:20:47.365Z,25.05
2023-04-01T05:21:47.438Z,25.06
2023-04-01T05:22:47.464Z,25.07
2023-04-01T05:23:47.500Z,25.05
2023-04-01T05:24:47.531Z,25.05
2023-04-01T05:25:47.544Z,25.07
2023-04-01T05:26:47.602Z,25.07
2023-04-01T05:27:47.640Z,25.06
2023-04-01T05:28:47.682Z,25.04
2023-04-01T05:29:47.717Z,25.03
2023-04-01T05:30:47.801Z,25.03
2023-04-01T05:31:47.806Z,25.03
2023-04-01T05:32:47.876Z,25.01
2023-04-01T05:33:47.867Z,25.02
2023-04-01T05:34:47.897Z,25.00
2023-04-01T05:35:47.959Z,24.99
2023-04-01T05:36:47.961Z,25.00
2023-04-01T05:37:48.006Z,24.98
2023-04-01T05:38:48.052Z,25.00
2023-04-01T05:39:48.068Z,24.96
2023-04-01T05:40:48.091Z,24.95
2023-04-01T05:41:48.111Z,24.97
2023-04-01T05:42:48.150Z,24.96
2023-04-01T05:43:48.174Z,24.95
2023-04-01T05:44:48.222Z,24.93
2023-04-01T05:45:48.274Z,24.94
2023-04-01T05:46:48.291Z,24.95
2023-04-01T05:47:48.353Z,24.98
2023-04-01T05:48:48.366Z,24.97
2023-04-01T05:49:48.389Z,24.96
2023-04-01T05:50:48.402Z,24.97
2023-04-01T05:51:48.460Z,24.96
2023-04-01T05:52:48.493Z,24.95
2023-04-01T05:53:48.535Z,24.96
2023-04-01T05:54:48.570Z,24.96
2023-04-01T05:55:48.609Z,24.94
2023-04-01T05:56:48.925Z,24.96
2023-04-01T05:57:48.670Z,24.94
2023-04-01T05:58:48.703Z,24.96
2023-04-01T05:59:48.751Z,24.96
2023-04-01T06:00:53.715Z,24.95
2023-04-01T06:01:49.789Z,24.99
2023-04-01T06:02:48.855Z,24.95
2023-04-01T06:03:49.055Z,24.97
2023-04-01T06:04:48.825Z,24.94
2023-04-01T06:05:48.754Z,24.99
2023-04-01T06:06:48.751Z,24.96
2023-04-01T06:07:48.734Z,24.97
2023-04-01T06:08:48.739Z,24.99
2023-04-01T06:09:48.733Z,24.99
2023-04-01T06:10:48.719Z,24.99
2023-04-01T06:11:48.719Z,25.01
2023-04-01T06:12:48.704Z,25.04
2023-04-01T06:13:48.699Z,25.03
2023-04-01T06:14:48.685Z,25.04
2023-04-01T06:15:48.728Z,25.05
2023-04-01T06:16:48.753Z,25.06
2023-04-01T06:17:48.833Z,25.06
2023-04-01T06:18:48.812Z,25.02
2023-04-01T06:19:48.875Z,25.05
2023-04-01T06:20:48.888Z,25.03
2023-04-01T06:21:48.984Z,25.05
2023-04-01T06:22:49.025Z,25.04
2023-04-01T06:23:49.022Z,25.06
2023-04-01T06:24:49.006Z,25.08
2023-04-01T06:25:49.040Z,25.08
2023-04-01T06:26:49.102Z,25.10
2023-04-01T06:27:49.137Z,25.11
2023-04-01T06:28:49.162Z,25.12
2023-04-01T06:29:49.178Z,25.12
2023-04-01T06:30:49.180Z,25.09
2023-04-01T06:31:49.257Z,25.09
2023-04-01T06:32:49.313Z,25.03
2023-04-01T06:33:49.281Z,25.05
2023-04-01T06:34:49.298Z,25.01
2023-04-01T06:35:49.445Z,24.99
2023-04-01T06:36:49.402Z,24.99
2023-04-01T06:37:49.413Z,24.97
2023-04-01T06:38:49.463Z,24.96
2023-04-01T06:39:49.484Z,24.97
2023-04-01T06:40:49.507Z,24.99
2023-04-01T06:41:49.558Z,24.93
2023-04-01T06:42:49.572Z,24.95
2023-04-01T06:43:49.614Z,24.92
2023-04-01T06:44:49.660Z,24.91
2023-04-01T06:45:49.643Z,24.87
2023-04-01T06:46:49.672Z,24.87
2023-04-01T06:47:49.709Z,24.87
2023-04-01T06:48:49.717Z,24.85
2023-04-01T06:49:49.755Z,24.84
2023-04-01T06:50:49.815Z,24.86
2023-04-01T06:51:49.862Z,24.84
2023-04-01T06:52:49.872Z,24.85
2023-04-01T06:53:49.910Z,24.81
2023-04-01T06:54:49.901Z,24.82
2023-04-01T06:55:49.946Z,24.81
2023-04-01T06:56:49.975Z,24.81
2023-04-01T06:57:49.981Z,24.81
2023-04-01T06:58:49.982Z,24.81
2023-04-01T06:59:50.000Z,24.83
2023-04-01T07:00:50.090Z,24.77
2023-04-01T07:01:50.073Z,24.76
2023-04-01T07:02:50.048Z,24.73
2023-04-01T07:03:50.055Z,24.74
2023-04-01T07:04:50.125Z,24.69
2023-04-01T07:05:50.185Z,24.66
2023-04-01T07:06:50.186Z,24.62
2023-04-01T07:07:50.270Z,24.60
2023-04-01T07:08:50.287Z,24.59
2023-04-01T07:09:50.311Z,24.59
2023-04-01T07:10:50.308Z,24.56
2023-04-01T07:11:50.326Z,24.50
2023-04-01T07:12:50.390Z,24.50
2023-04-01T07:13:50.413Z,24.50
2023-04-01T07:14:50.437Z,24.47
2023-04-01T07:15:50.449Z,24.46
2023-04-01T07:16:50.505Z,24.48
2023-04-01T07:17:50.598Z,24.49
2023-04-01T07:18:50.602Z,24.48
2023-04-01T07:19:50.609Z,24.45
2023-04-01T07:20:50.625Z,24.42
2023-04-01T07:21:50.640Z,24.41
2023-04-01T07:22:50.680Z,24.38
2023-04-01T07:23:50.660Z,24.34
2023-04-01T07:24:50.722Z,24.33
2023-04-01T07:25:50.757Z,24.33
2023-04-01T07:26:50.804Z,24.34
2023-04-01T07:27:50.861Z,24.34
2023-04-01T07:28:50.952Z,24.32
2023-04-01T07:29:50.960Z,24.32
2023-04-01T07:30:51.018Z,24.30
2023-04-01T07:31:51.060Z,24.31
2023-04-01T07:32:51.131Z,24.29
2023-04-01T07:33:51.212Z,24.30
2023-04-01T07:34:51.178Z,24.33
2023-04-01T07:35:51.211Z,24.32
2023-04-01T07:36:51.202Z,24.35
2023-04-01T07:37:51.228Z,24.37
2023-04-01T07:38:51.271Z,24.37
2023-04-01T07:39:51.282Z,24.35
2023-04-01T07:40:51.297Z,24.36
2023-04-01T07:41:51.302Z,24.40
2023-04-01T07:42:51.364Z,24.37
2023-04-01T07:43:51.354Z,24.39
2023-04-01T07:44:51.368Z,24.40
2023-04-01T07:45:51.424Z,24.42
2023-04-01T07:46:51.439Z,24.39
2023-04-01T07:47:51.450Z,24.41
2023-04-01T07:48:51.422Z,24.43
2023-04-01T07:49:51.475Z,24.40
2023-04-01T07:50:53.141Z,24.41
2023-04-01T07:51:51.529Z,24.39
2023-04-01T07:52:51.556Z,24.40
2023-04-01T07:53:51.602Z,24.38
2023-04-01T07:54:51.645Z,24.34
2023-04-01T07:55:51.666Z,24.32
2023-04-01T07:56:51.710Z,24.28
2023-04-01T07:57:51.707Z,24.23
2023-04-01T07:58:51.720Z,24.15
2023-04-01T07:59:51.756Z,24.14
2023-04-01T08:00:51.765Z,24.10
2023-04-01T08:01:51.782Z,24.09
2023-04-01T08:02:51.914Z,24.06
2023-04-01T08:03:52.100Z,23.97
2023-04-01T08:04:51.985Z,23.95
2023-04-01T08:05:51.915Z,23.92
2023-04-01T08:06:51.928Z,23.87
2023-04-01T08:07:51.977Z,23.82
2023-04-01T08:08:52.047Z,23.80
2023-04-01T08:09:52.061Z,23.79
2023-04-01T08:10:52.100Z,23.74
2023-04-01T08:11:52.101Z,23.75
2023-04-01T08:12:52.140Z,23.75
2023-04-01T08:13:52.207Z,23.71
2023-04-01T08:14:52.203Z,23.73
2023-04-01T08:15:52.252Z,23.73
2023-04-01T08:16:54.478Z,23.70
2023-04-01T08:17:52.351Z,23.67
2023-04-01T08:18:52.303Z,23.67
2023-04-01T08:19:52.289Z,23.62
2023-04-01T08:20:52.319Z,23.61
2023-04-01T08:21:52.355Z,23.59
2023-04-01T08:22:52.354Z,23.55
2023-04-01T08:23:52.389Z,23.57
2023-04-01T08:24:52.429Z,23.55
2023-04-01T08:25:52.449Z,23.56
2023-04-01T08:26:52.452Z,23.54
2023-04-01T08:27:52.509Z,23.53
2023-04-01T08:28:52.527Z,23.57
2023-04-01T08:29:52.551Z,23.57
2023-04-01T08:30:52.555Z,23.53
2023-04-01T08:31:52.729Z,23.49
2023-04-01T08:32:52.731Z,23.47
2023-04-01T08:33:52.680Z,23.43
2023-04-01T08:34:52.749Z,23.41
2023-04-01T08:35:52.805Z,23.41
2023-04-01T08:36:52.826Z,23.39
2023-04-01T08:37:52.886Z,23.42
2023-04-01T08:38:52.934Z,23.43
2023-04-01T08:39:52.931Z,23.37
2023-04-01T08:40:52.982Z,23.37
2023-04-01T08:41:53.019Z,23.37
2023-04-01T08:42:53.018Z,23.40
2023-04-01T08:43:53.062Z,23.43
2023-04-01T08:44:53.086Z,23.40
2023-04-01T08:45:53.135Z,23.39
2023-04-01T08:46:53.167Z,23.41
2023-04-01T08:47:53.219Z,23.40
2023-04-01T08:48:53.237Z,23.38
2023-04-01T08:49:53.274Z,23.36
2023-04-01T08:50:53.278Z,23.35
2023-04-01T08:51:53.352Z,23.35
2023-04-01T08:52:53.339Z,23.35
2023-04-01T08:53:53.390Z,23.33
2023-04-01T08:54:53.430Z,23.33
2023-04-01T08:55:53.459Z,23.29
2023-04-01T08:56:53.549Z,23.29
2023-04-01T08:57:55.432Z,23.26
2023-04-01T08:58:53.809Z,23.26
2023-04-01T08:59:53.872Z,23.24
2023-04-01T09:00:53.858Z,23.22
2023-04-01T09:01:53.955Z,23.23
2023-04-01T09:02:54.036Z,23.21
2023-04-01T09:03:54.046Z,23.22
2023-04-01T09:04:53.965Z,23.21
2023-04-01T09:05:53.970Z,23.16
2023-04-01T09:06:54.005Z,23.17
2023-04-01T09:07:54.036Z,23.15
2023-04-01T09:08:54.063Z,23.12
2023-04-01T09:09:54.272Z,23.11
2023-04-01T09:10:54.176Z,23.08
2023-04-01T09:11:54.244Z,23.05
2023-04-01T09:12:54.273Z,23.04
2023-04-01T09:13:54.283Z,23.01
2023-04-01T09:14:54.350Z,23.01
2023-04-01T09:15:54.410Z,22.96
2023-04-01T09:16:54.374Z,22.94
2023-04-01T09:17:54.474Z,22.93
2023-04-01T09:18:54.440Z,22.92
2023-04-01T09:19:54.505Z,22.90
2023-04-01T09:20:54.517Z,22.90
2023-04-01T09:21:54.544Z,22.89
2023-04-01T09:22:54.570Z,22.86
2023-04-01T09:23:54.608Z,22.86
2023-04-01T09:24:54.626Z,22.84
2023-04-01T09:25:54.677Z,22.87
2023-04-01T09:26:54.683Z,22.86
2023-04-01T09:27:54.717Z,22.86
2023-04-01T09:28:54.750Z,22.86
2023-04-01T09:29:54.778Z,22.85
2023-04-01T09:30:54.797Z,22.86
2023-04-01T09:31:54.868Z,22.88
2023-04-01T09:32:54.970Z,22.86
2023-04-01T09:33:54.898Z,22.83
2023-04-01T09:34:54.937Z,22.85
2023-04-01T09:35:54.999Z,22.83
2023-04-01T09:36:55.008Z,22.83
2023-04-01T09:37:54.974Z,22.82
2023-04-01T09:38:54.998Z,22.79
2023-04-01T09:39:55.070Z,22.76
2023-04-01T09:40:55.122Z,22.76
2023-04-01T09:41:55.107Z,22.72
2023-04-01T09:42:55.161Z,22.72
2023-04-01T09:43:55.180Z,22.69
2023-04-01T09:44:55.252Z,22.66
2023-04-01T09:45:55.307Z,22.69
2023-04-01T09:46:55.231Z,22.62
2023-04-01T09:47:55.280Z,22.59
2023-04-01T09:48:55.290Z,22.58
2023-04-01T09:49:55.316Z,22.61
2023-04-01T09:50:55.346Z,22.58
2023-04-01T09:51:55.381Z,22.56
2023-04-01T09:52:55.423Z,22.54
2023-04-01T09:53:55.416Z,22.53
2023-04-01T09:54:55.469Z,22.56
2023-04-01T09:55:55.493Z,22.55
2023-04-01T09:56:55.574Z,22.58
2023-04-01T09:57:55.572Z,22.55
2023-04-01T09:58:55.610Z,22.60
2023-04-01T09:59:55.651Z,22.56
2023-04-01T10:00:55.649Z,22.54
2023-04-01T10:01:55.751Z,22.49
2023-04-01T10:02:55.845Z,22.50
2023-04-01T10:03:55.750Z,22.49
2023-04-01T10:04:55.815Z,22.48
2023-04-01T10:05:55.863Z,22.47
2023-04-01T10:06:55.846Z,22.47
2023-04-01T10:07:55.875Z,22.41
2023-04-01T10:08:55.891Z,22.42
2023-04-01T10:09:55.933Z,22.39
2023-04-01T10:10:55.963Z,22.38
2023-04-01T10:11:55.998Z,22.37
2023-04-01T10:12:56.009Z,22.33
2023-04-01T10:13:56.028Z,22.29
2023-04-01T10:14:56.101Z,22.27
2023-04-01T10:15:56.126Z,22.25
2023-04-01T10:16:56.161Z,22.27
2023-04-01T10:17:56.193Z,22.28
2023-04-01T10:18:56.182Z,22.28
2023-04-01T10:19:56.235Z,22.26
2023-04-01T10:20:56.208Z,22.23
2023-04-01T10:21:56.219Z,22.26
2023-04-01T10:22:56.261Z,22.25
2023-04-01T10:23:56.308Z,22.25
2023-04-01T10:24:56.383Z,22.24
2023-04-01T10:25:56.388Z,22.20
2023-04-01T10:26:56.423Z,22.21
2023-04-01T10:27:56.478Z,22.21
2023-04-01T10:28:56.471Z,22.17
2023-04-01T10:29:56.542Z,22.16
2023-04-01T10:30:56.529Z,22.18
2023-04-01T10:31:56.611Z,22.15
2023-04-01T10:32:56.736Z,22.12
2023-04-01T10:33:56.683Z,22.13
2023-04-01T10:34:56.755Z,22.12
2023-04-01T10:35:56.814Z,22.10
2023-04-01T10:36:56.837Z,22.12
2023-04-01T10:37:56.863Z,22.09
2023-04-01T10:38:56.948Z,22.06
2023-04-01T10:39:56.996Z,22.06
2023-04-01T10:40:57.047Z,22.07
2023-04-01T10:41:57.085Z,22.06
2023-04-01T10:42:57.178Z,22.08
2023-04-01T10:43:57.201Z,22.09
2023-04-01T10:44:57.259Z,22.05
2023-04-01T10:45:57.376Z,22.07
2023-04-01T10:46:57.398Z,22.06
2023-04-01T10:47:57.458Z,22.02
2023-04-01T10:48:57.471Z,22.01
2023-04-01T10:49:57.507Z,22.06
2023-04-01T10:50:57.521Z,22.03
2023-04-01T10:51:57.522Z,22.02
2023-04-01T10:52:57.568Z,22.03
2023-04-01T10:53:57.606Z,22.01
2023-04-01T10:54:57.716Z,22.01
2023-04-01T10:55:57.680Z,21.99
2023-04-01T10:56:57.863Z,22.03
2023-04-01T10:57:57.804Z,21.99
2023-04-01T10:58:57.817Z,21.99
2023-04-01T10:59:57.845Z,21.96
2023-04-01T11:00:57.922Z,21.97
2023-04-01T11:02:08.305Z,21.94
2023-04-01T11:02:58.997Z,21.93
2023-04-01T11:03:58.024Z,21.98
2023-04-01T11:04:57.896Z,21.92
2023-04-01T11:05:57.897Z,21.93
2023-04-01T11:06:57.897Z,21.93
2023-04-01T11:08:06.107Z,21.95
2023-04-01T11:08:58.861Z,21.93
2023-04-01T11:09:57.856Z,21.89
2023-04-01T11:10:57.929Z,21.91
2023-04-01T11:11:57.862Z,21.90
2023-04-01T11:12:57.843Z,21.91
2023-04-01T11:13:57.939Z,21.92
2023-04-01T11:14:57.941Z,21.90
2023-04-01T11:15:57.834Z,21.92
2023-04-01T11:16:57.832Z,21.92
2023-04-01T11:17:57.817Z,21.93
2023-04-01T11:18:57.847Z,21.95
2023-04-01T11:19:57.790Z,21.94
2023-04-01T11:20:57.761Z,21.94
2023-04-01T11:21:57.787Z,21.92
2023-04-01T11:22:57.853Z,21.91
2023-04-01T11:24:57.904Z,21.90
2023-04-01T11:25:57.932Z,21.90
2023-04-01T11:26:57.944Z,21.92
2023-04-01T11:27:57.937Z,21.91
2023-04-01T11:28:57.854Z,21.89
2023-04-01T11:30:00.099Z,21.91
2023-04-01T11:30:57.857Z,21.89
2023-04-01T11:31:57.856Z,21.87
2023-04-01T11:32:57.891Z,21.88
2023-04-01T11:33:57.962Z,21.88
2023-04-01T11:34:57.828Z,21.84
2023-04-01T11:35:58.265Z,21.83
2023-04-01T11:36:57.864Z,21.82
2023-04-01T11:37:57.865Z,21.88
2023-04-01T11:38:57.780Z,21.86
2023-04-01T11:39:58.306Z,21.85
2023-04-01T11:40:57.763Z,21.81
2023-04-01T11:41:57.826Z,21.84
2023-04-01T11:42:57.744Z,21.85
2023-04-01T11:43:57.754Z,21.81
2023-04-01T11:44:57.736Z,21.78
2023-04-01T11:45:57.755Z,21.79
2023-04-01T11:46:57.718Z,21.82
2023-04-01T11:47:57.755Z,21.79
2023-04-01T11:48:57.715Z,21.81
2023-04-01T11:49:57.740Z,21.81
2023-04-01T11:50:57.781Z,21.80
2023-04-01T11:51:57.707Z,21.79
2023-04-01T11:52:57.693Z,21.82
2023-04-01T11:53:57.686Z,21.80
2023-04-01T11:54:57.686Z,21.82
2023-04-01T11:55:57.700Z,21.79
2023-04-01T11:56:57.708Z,21.80
2023-04-01T11:57:57.662Z,21.72
2023-04-01T11:58:57.637Z,21.78
2023-04-01T11:59:57.629Z,21.82
2023-04-01T12:00:57.646Z,21.80
2023-04-01T12:01:57.635Z,21.81
2023-04-01T12:02:57.639Z,21.82
2023-04-01T12:03:57.849Z,21.76
2023-04-01T12:04:57.645Z,21.81
2023-04-01T12:05:57.597Z,21.79
2023-04-01T12:06:57.581Z,21.78
2023-04-01T12:07:57.579Z,21.77
2023-04-01T12:08:57.586Z,21.73
2023-04-01T12:09:57.603Z,21.75
2023-04-01T12:10:57.605Z,21.74
2023-04-01T12:11:57.586Z,21.71
2023-04-01T12:13:01.293Z,21.69
2023-04-01T12:13:57.562Z,21.70
2023-04-01T12:14:57.550Z,21.73
2023-04-01T12:15:57.584Z,21.72
2023-04-01T12:16:57.555Z,21.70
2023-04-01T12:17:57.562Z,21.70
2023-04-01T12:18:57.553Z,21.69
2023-04-01T12:19:57.536Z,21.70
2023-04-01T12:20:57.482Z,21.71
2023-04-01T12:21:57.551Z,21.69
2023-04-01T12:22:57.505Z,21.67
2023-04-01T12:23:57.485Z,21.66
2023-04-01T12:24:57.545Z,21.65
2023-04-01T12:25:57.511Z,21.65
2023-04-01T12:26:57.439Z,21.66
2023-04-01T12:27:57.433Z,21.62
2023-04-01T12:28:57.435Z,21.61
2023-04-01T12:29:57.425Z,21.60
2023-04-01T12:30:57.409Z,21.59
2023-04-01T12:31:57.456Z,21.59
2023-04-01T12:32:57.437Z,21.60
2023-04-01T12:33:57.388Z,21.59
2023-04-01T12:34:57.406Z,21.60
2023-04-01T12:35:57.472Z,21.57
2023-04-01T12:36:57.383Z,21.60
2023-04-01T12:37:57.364Z,21.62
2023-04-01T12:38:57.364Z,21.66
2023-04-01T12:39:57.385Z,21.66
2023-04-01T12:40:57.425Z,21.69
2023-04-01T12:41:57.444Z,21.73
2023-04-01T12:42:57.514Z,21.71
2023-04-01T12:43:57.575Z,21.73
2023-04-01T12:44:57.562Z,21.77
2023-04-01T12:45:57.597Z,21.75
2023-04-01T12:46:57.632Z,21.77
2023-04-01T12:47:57.661Z,21.74
2023-04-01T12:48:57.688Z,21.75
2023-04-01T12:49:57.733Z,21.78
2023-04-01T12:50:57.798Z,21.80
2023-04-01T12:51:57.831Z,21.79
2023-04-01T12:52:57.934Z,21.78
2023-04-01T12:53:57.953Z,21.79